Aktualne dane pomiarowe

Uwaga, wersja testowa! Automatyczne pobieranie danych za pomocą narzędzi lub skryptów to umożliwiających jest zabronione.

Dane meteo z obszaru Polski uzyskane na podstawie depesz SYNOP pobieranych co godzinę z NWS. Najedź myszką na symbol przedstawiony w tabeli, aby uzyskać informacje co do jego znaczenia. Prosimy pamiętać, że to testowa wersja strony, która jeszcze nie jest ukończona. Stworzono również jest krótki FAQ dotyczący korzystania z tej podstrony Anomalie temperatury w chwili obecnej odniesione są do okresu referencyjnego 1951-2016. Okres ten będzie później zmieniony na 1981-2010. Kliknij ikonę aby pobrać plik CSV. Kliknij ikonę aby wygenerować mapę synoptyczną dla danego terminu.

Wybierz Datę:    

        

Racibórz (12540)

Dane terminowe dla wybranej stacji. Kliknij datę, aby otrzymać dane z tego terminu dla wszystkich stacji.

TemperaturaZachmurzenieWiatrCiśnienieOpadyPogoda
 Data t td wb tx tn tg rh  Nt Nl Cl Cm Ch ws wd g1 g2 wx mslp ppp ch 24h 12h t ww ww w1 w2  
2019-07-07 23:00:00 10.7 6.4 8.1--- 7545.0wx-wx3wx--31013.0 988.2 1.4---------
2019-07-07 22:00:00 11.4 6.7 8.6--- 7340.0wxwxwxwx3wx--31012.6 987.8 2.1---------
2019-07-07 21:00:00 13.8 5.7 9.2--- 5830.0wxwxwxwx3wx--31011.9 987.4 2.3---------
2019-07-07 20:00:00 15.6 6.0 10.2--- 5345.0wxwxwxwx3wx--31011.2 986.8 1.7---------
2019-07-07 19:00:00 15.8 9.2 11.8--- 6540.0wxwxwxwx3wx---1010.0 985.7 1.0---------
2019-07-07 18:00:00 18.1 8.9 12.7 21.4 14.3- 5540.0wxwxwxwx3wx--31009.2 985.1 -0.2--12wx-w1--
2019-07-07 17:00:00 19.2 8.5 13.0--- 5040.0wxwxwxwxwx3wx---1009.1 985.1 -0.7---------
2019-07-07 16:00:00 18.9 11.7 14.4--- 6330.0wxwxwxwxwx1wx---1008.7 984.7 -1.3---------
2019-07-07 15:00:00 15.7 11.9 13.2--- 7830.0wxwxwxwx2wx--21009.6 985.3 -0.4---wx---
2019-07-07 14:00:00 14.5 11.1 12.3--- 8025.0wxwxwxwx3wx--31010.2 985.8 0.2---wx-w1w2--
2019-07-07 13:00:00 17.0 9.4 12.4--- 6130.0wxwxwxwx5wx---1010.2 986.0 1.0---wx---
2019-07-07 12:00:00 18.1 10.5 13.4--- 6130.0wxwxwxwx4wx-1341009.8 985.7 1.3- 0.06------
2019-07-07 11:00:00 17.5 10.6 13.2--- 6435.0wxwxwxwx6wx---1009.8 985.6 1.9---------
2019-07-07 10:00:00 17.7 11.5 13.8--- 6735.0wxwxwx6wx-1361009.2 985.0 1.7---------
2019-07-07 09:00:00 19.3 12.3 14.9--- 6435.0wxwxwxwxwx7wx--71008.4 984.4 1.5---------
2019-07-07 08:00:00 19.8 13.5 15.7--- 6735.0wxwxwx7wx--71007.6 983.7 0.5---------
2019-07-07 07:00:00 20.6 12.6 15.6--- 6030.0wxwxwxwx5wx--51007.2 983.3 0.6---------
2019-07-07 06:00:00 20.3 12.3 15.3 27.0 12.4 11 6030.0wx-wx3wx--31006.8 982.9 0.2- 0.012----- 12.2
2019-07-07 05:00:00 17.5 13.0 14.5--- 7527.0wx-wx1wx--11007.3 983.2 0.3---------
2019-07-07 04:00:00 14.3 11.6 12.5--- 8423.0wx-wx1wx--11007.1 982.7 -0.6---------
2019-07-07 03:00:00 12.7 10.2 11.0--- 8519.0wx-wx2wx--21007.2 982.7 -0.4---------
2019-07-07 02:00:00 14.6 10.8 12.1--- 7830.0wx-wx3wx--31007.3 982.9 0.3---------
2019-07-07 01:00:00 15.9 11.3 12.9--- 7430.0wx-wx4wx---1007.6 983.3 1.5---------
2019-07-07 00:00:00 17.7 11.3 13.7--- 6635.0wx-wx3wx--31007.2 983.1 1.7- 0.06------
2019-07-06 23:00:00 17.9 11.0 13.6--- 6440.0wx-wx4wx--41006.7 982.6 1.5---------
2019-07-06 22:00:00 18.7 12.0 14.5--- 6545.0wx-wx4wx--41005.8 981.8 0.2---------
2019-07-06 21:00:00 21.8 11.2 15.4--- 5111.0wx-wx4wx--41005.1 981.4 -0.4---------
2019-07-06 20:00:00 22.5 11.9 16.0--- 5126.0wx-wxwx0---01004.8 981.1 -1.1---------
2019-07-06 19:00:00 25.2 11.0 16.7--- 4128.0wx-wxwx3wx--31005.1 981.6 -1.1---------
2019-07-06 18:00:00 27.0 10.2 17.1 29.8 18.9- 3540.0wx-wxwx2wx-1421005.1 981.8 -1.3- 0.012------
2019-07-06 17:00:00 29.2 8.8 17.3--- 2845.0wxwxwxwxwx2wx--21005.4 982.2 -1.5---------
2019-07-06 16:00:00 28.9 8.0 16.9--- 2740.0wxwxwxwxwx6wx--61005.9 982.7 -1.5---------
2019-07-06 15:00:00 29.0 7.0 16.5--- 2540.0wxwxwxwxwx5wx-1451006.3 983.1 -1.8---------
2019-07-06 14:00:00 28.9 8.0 16.9--- 2740.0wxwxwxwxwx7wx-1271006.9 983.7 -1.7---------
2019-07-06 13:00:00 28.9 8.0 16.9--- 2740.0wxwxwxwxwx8wx-1481007.4 984.2 -2.0---------
2019-07-06 12:00:00 28.3 7.5 16.4--- 2735.0wxwxwxwxwx7wx131371008.2 984.9 -1.9- 0.06------
2019-07-06 11:00:00 28.2 8.0 16.6--- 2840.0wxwxwxwxwx8wx-1181008.7 985.4 -2.0---------
2019-07-06 10:00:00 26.4 7.4 15.6--- 3035.0wxwxwxwxwx7wx-1271009.7 986.2 -1.7---------
2019-07-06 09:00:00 25.3 8.3 15.6--- 3430.0wxwxwxwxwx5wx-951010.4 986.8 -1.4---------
2019-07-06 08:00:00 24.2 8.6 15.2--- 3735.0wxwxwxwxwx4wx--41011.1 987.4 -1.3---------
2019-07-06 07:00:00 21.2 10.7 14.9--- 5135.0wx-wxwx2wx--21011.8 987.9 -1.0---------
2019-07-06 06:00:00 19.0 12.0 14.6 20.6 11.4 11 6430.0wx-wxwx2wx--21012.3 988.2 -0.9--12----- 1.0
2019-07-06 05:00:00 16.1 11.7 13.2--- 7527.0wx-wxwx2wx--21013.1 988.7 -0.5---------
2019-07-06 04:00:00 12.6 10.8 11.4--- 8929.0wx-wxwx1wx--11013.6 988.9 -0.7---------
2019-07-06 03:00:00 12.1 9.8 10.6--- 8626.0wx-wxwx1wx--11013.8 989.1 -0.6---------
2019-07-06 02:00:00 13.2 9.6 10.9--- 7930.0wx-wx1wx--11013.8 989.2 -0.6---------
2019-07-06 01:00:00 15.1 11.3 12.6--- 7835.0wx-wx1wx--11014.1 989.6 -0.1---------
2019-07-06 00:00:00 15.4 11.8 13.0--- 7940.0wxwxwxwx1wx--11014.2 989.7 0.0--6wx---
1.7 ms

 

Print Friendly, PDF & Email